Time;durP1;ratioP1;P1;durP2;ratioP2;P2;SDS_P1;SDS_P2;PMS_P1;PMS_P2;Temp;Humidity;BMP_temperature;BMP_pressure;BME280_temperature;BME280_humidity;BME280_pressure;Samples;Min_cycle;Max_cycle;Signal;HPM_P1;HPM_P2
2023/10/19 00:02:15;;;;;;;20.90;12.68;;;7.90;1.00;;;;;;5043060;28;20124;-72
2023/10/19 00:04:40;;;;;;;21.20;12.73;;;7.90;1.00;;;;;;5039325;28;20041;-72
2023/10/19 00:07:07;;;;;;;22.50;12.43;;;7.90;1.00;;;;;;5043918;28;20041;-72
2023/10/19 00:09:37;;;;;;;23.92;13.18;;;7.90;1.00;;;;;;5058177;28;20449;-72
2023/10/19 00:12:06;;;;;;;19.83;12.40;;;7.90;1.00;;;;;;5047505;28;20068;-73
2023/10/19 00:14:32;;;;;;;22.65;12.95;;;8.00;1.00;;;;;;5030564;28;20052;-72
2023/10/19 00:17:00;;;;;;;23.45;13.27;;;7.90;1.00;;;;;;5048209;28;20392;-72
2023/10/19 00:19:30;;;;;;;25.83;13.45;;;7.90;1.00;;;;;;5051629;28;20040;-72
2023/10/19 00:22:01;;;;;;;19.58;11.93;;;7.90;1.00;;;;;;5037084;28;20033;-72
2023/10/19 00:24:27;;;;;;;27.48;13.65;;;7.90;1.40;;;;;;5027220;28;20052;-72
2023/10/19 00:26:54;;;;;;;22.40;13.80;;;8.00;6.30;;;;;;5048208;28;20041;-72
2023/10/19 00:29:30;;;;;;;23.40;14.25;;;8.00;12.50;;;;;;5049005;28;20053;-72
2023/10/19 00:31:58;;;;;;;22.85;12.25;;;7.90;19.50;;;;;;5029159;28;20036;-72
2023/10/19 00:34:25;;;;;;;21.15;12.77;;;8.00;20.70;;;;;;5021637;28;20507;-72
2023/10/19 00:36:51;;;;;;;24.63;13.63;;;8.00;24.30;;;;;;5048751;28;20099;-72
2023/10/19 00:39:27;;;;;;;23.60;13.88;;;8.00;28.00;;;;;;5025095;28;20542;-72
2023/10/19 00:41:57;;;;;;;24.42;13.90;;;8.00;30.00;;;;;;5038982;28;20056;-72
2023/10/19 00:44:25;;;;;;;25.50;14.00;;;8.00;36.20;;;;;;5034966;28;20163;-72
2023/10/19 00:47:39;;;;;;;40.45;15.23;;;8.00;40.10;;;;;;5047514;28;20052;-72
2023/10/19 00:49:38;;;;;;;23.52;13.88;;;8.00;42.50;;;;;;5038132;28;20048;-72
2023/10/19 00:52:11;;;;;;;27.58;16.15;;;8.00;49.80;;;;;;5039940;28;20053;-72
2023/10/19 00:57:19;;;;;;;28.25;15.05;;;8.00;59.80;;;;;;5055999;28;20066;-72
2023/10/19 00:59:52;;;;;;;24.17;14.38;;;8.00;63.70;;;;;;5030840;28;20139;-71
2023/10/19 01:05:07;;;;;;;23.60;14.05;;;8.00;73.30;;;;;;5046631;28;20110;-72
2023/10/19 01:07:37;;;;;;;26.75;15.15;;;8.00;78.00;;;;;;5061524;28;20388;-72
2023/10/19 01:13:05;;;;;;;28.30;15.13;;;8.00;86.50;;;;;;4975048;28;20046;-72
2023/10/19 01:15:36;;;;;;;27.27;15.45;;;8.00;91.90;;;;;;5030773;28;20053;-72
2023/10/19 01:18:02;;;;;;;29.45;14.82;;;8.00;94.20;;;;;;5045381;28;20125;-72
2023/10/19 01:25:36;;;;;;;24.35;14.23;;;8.00;99.90;;;;;;5062770;28;20058;-73
2023/10/19 01:28:07;;;;;;;26.33;15.38;;;8.00;99.90;;;;;;5026215;28;20045;-73
2023/10/19 01:30:33;;;;;;;26.00;14.93;;;8.00;99.90;;;;;;5016066;28;20041;-73
2023/10/19 01:32:59;;;;;;;25.35;14.60;;;8.00;99.90;;;;;;5046541;28;20679;-73
2023/10/19 01:35:26;;;;;;;28.23;15.15;;;8.00;99.90;;;;;;5046328;28;20072;-73
2023/10/19 01:37:52;;;;;;;27.42;15.65;;;7.90;99.90;;;;;;5029699;28;20033;-73
2023/10/19 01:40:20;;;;;;;29.17;15.95;;;8.00;99.90;;;;;;5031545;28;20272;-72
2023/10/19 01:42:47;;;;;;;25.10;14.85;;;8.00;99.90;;;;;;5034264;28;20116;-73
2023/10/19 01:45:12;;;;;;;25.40;14.90;;;8.00;99.90;;;;;;5055667;28;20411;-73
2023/10/19 01:47:40;;;;;;;28.80;16.08;;;8.10;99.90;;;;;;5041197;28;20033;-73
2023/10/19 01:50:07;;;;;;;25.70;14.80;;;8.00;99.90;;;;;;5035721;28;20036;-73
2023/10/19 01:52:33;;;;;;;27.95;15.75;;;8.00;99.90;;;;;;5044998;28;20534;-73
2023/10/19 01:55:07;;;;;;;25.73;14.98;;;8.10;99.90;;;;;;5048374;28;20099;-73
2023/10/19 01:57:34;;;;;;;27.38;14.82;;;8.00;99.90;;;;;;5046325;28;20056;-73
2023/10/19 02:00:08;;;;;;;26.10;15.32;;;8.00;99.90;;;;;;5029895;28;20084;-73
2023/10/19 02:02:35;;;;;;;26.13;14.63;;;8.10;99.90;;;;;;5055330;28;20096;-73
2023/10/19 02:05:04;;;;;;;26.60;15.05;;;8.10;99.90;;;;;;5029254;28;20075;-73
2023/10/19 02:07:30;;;;;;;28.33;16.00;;;8.10;99.90;;;;;;5028781;28;20044;-73
2023/10/19 02:09:55;;;;;;;25.98;14.80;;;8.00;99.90;;;;;;5045792;28;20094;-73
2023/10/19 02:12:21;;;;;;;23.05;14.15;;;8.10;99.90;;;;;;5032781;28;20047;-73
2023/10/19 02:14:47;;;;;;;24.42;13.05;;;8.10;99.90;;;;;;5042930;28;20044;-73
2023/10/19 02:17:14;;;;;;;19.88;12.90;;;8.20;99.90;;;;;;5027892;28;20033;-73
2023/10/19 02:19:40;;;;;;;21.30;13.55;;;8.10;99.90;;;;;;5041700;28;20044;-72
2023/10/19 02:22:11;;;;;;;22.90;13.50;;;8.20;99.90;;;;;;5023403;28;20037;-72
2023/10/19 02:24:38;;;;;;;19.52;11.75;;;8.20;99.90;;;;;;5041043;28;20070;-72
2023/10/19 02:27:04;;;;;;;19.77;12.05;;;8.10;99.90;;;;;;5039368;28;20518;-72
2023/10/19 02:29:31;;;;;;;20.15;12.88;;;8.10;99.90;;;;;;5042013;28;20028;-72
2023/10/19 02:31:57;;;;;;;18.50;11.48;;;8.20;99.90;;;;;;5044923;28;20039;-72
2023/10/19 02:34:23;;;;;;;17.63;10.98;;;8.20;99.90;;;;;;5046100;28;20052;-72
2023/10/19 02:36:49;;;;;;;19.77;11.48;;;8.20;99.90;;;;;;5040066;28;20425;-72
2023/10/19 02:39:17;;;;;;;19.80;11.82;;;8.20;99.90;;;;;;5022816;28;20717;-72
2023/10/19 02:41:49;;;;;;;19.48;12.00;;;8.20;99.90;;;;;;5029585;28;20048;-72
2023/10/19 02:47:05;;;;;;;22.13;12.75;;;8.20;99.90;;;;;;5055561;28;20044;-73
2023/10/19 02:49:31;;;;;;;16.30;10.27;;;8.30;99.90;;;;;;5042629;28;20112;-73
2023/10/19 02:52:03;;;;;;;19.75;11.02;;;8.20;99.90;;;;;;5037211;28;20167;-73
2023/10/19 02:54:32;;;;;;;19.85;12.00;;;8.20;99.90;;;;;;5047789;28;20540;-73
2023/10/19 02:56:58;;;;;;;18.63;11.73;;;8.20;99.90;;;;;;5025073;28;20036;-73
2023/10/19 02:59:28;;;;;;;16.70;10.70;;;8.20;99.90;;;;;;5027330;28;20045;-73
2023/10/19 03:02:15;;;;;;;15.10;10.25;;;8.20;99.90;;;;;;5046127;28;20041;-73
2023/10/19 03:04:42;;;;;;;16.83;10.68;;;8.20;99.90;;;;;;5043129;28;20052;-73
2023/10/19 03:07:08;;;;;;;17.65;11.38;;;8.30;99.90;;;;;;5029183;28;20044;-73
2023/10/19 03:09:37;;;;;;;16.38;10.70;;;8.20;99.90;;;;;;5055935;28;20032;-73
2023/10/19 03:12:04;;;;;;;17.02;9.60;;;8.20;99.90;;;;;;5033413;28;20105;-73
2023/10/19 03:14:30;;;;;;;17.55;9.85;;;8.30;99.90;;;;;;5044717;28;20677;-73
2023/10/19 03:16:59;;;;;;;17.05;10.18;;;8.20;99.90;;;;;;5026796;28;20542;-73
2023/10/19 03:19:25;;;;;;;16.10;10.15;;;8.40;99.90;;;;;;5037525;28;20159;-73
2023/10/19 03:21:51;;;;;;;15.80;10.18;;;8.30;99.90;;;;;;5026507;28;20037;-73
2023/10/19 03:24:36;;;;;;;17.00;9.85;;;8.30;99.90;;;;;;5029478;28;20693;-73
2023/10/19 03:27:12;;;;;;;16.92;10.57;;;8.30;99.90;;;;;;5026131;28;20048;-73
2023/10/19 03:29:39;;;;;;;16.08;10.70;;;8.30;99.90;;;;;;5030637;28;20037;-72
2023/10/19 03:32:09;;;;;;;17.75;10.63;;;8.40;99.90;;;;;;5040325;28;20092;-73
2023/10/19 03:34:35;;;;;;;18.10;11.00;;;8.30;99.90;;;;;;5028492;28;21032;-73
2023/10/19 03:37:12;;;;;;;18.90;11.52;;;8.30;99.90;;;;;;5034552;28;20033;-73
2023/10/19 03:39:37;;;;;;;15.75;9.95;;;8.40;99.90;;;;;;5056131;28;20048;-73
2023/10/19 03:42:06;;;;;;;15.32;10.05;;;8.40;99.90;;;;;;5034979;28;20078;-73
2023/10/19 03:47:18;;;;;;;15.27;9.38;;;8.30;99.90;;;;;;5044684;28;20052;-73
2023/10/19 03:49:46;;;;;;;13.30;9.02;;;8.30;99.90;;;;;;5016766;28;20079;-73
2023/10/19 03:54:39;;;;;;;14.40;8.98;;;8.30;99.90;;;;;;5060257;28;20045;-73
2023/10/19 03:57:11;;;;;;;13.88;9.02;;;8.40;99.90;;;;;;5043061;28;20052;-73
2023/10/19 03:59:38;;;;;;;12.85;8.30;;;8.40;99.90;;;;;;5050094;28;20041;-73
2023/10/19 04:02:13;;;;;;;12.18;8.27;;;8.40;99.90;;;;;;5058430;28;20053;-73
2023/10/19 04:04:43;;;;;;;9.93;7.38;;;8.40;99.90;;;;;;5040975;28;20210;-73
2023/10/19 04:07:21;;;;;;;10.18;7.43;;;8.40;99.90;;;;;;5025449;28;20456;-73
2023/10/19 04:12:35;;;;;;;13.93;8.35;;;8.50;99.90;;;;;;5053439;28;20127;-73
2023/10/19 04:15:17;;;;;;;12.63;8.68;;;8.40;99.90;;;;;;5041857;28;20045;-73
2023/10/19 04:17:48;;;;;;;12.15;7.90;;;8.50;99.90;;;;;;5030954;28;20033;-73
2023/10/19 04:22:43;;;;;;;13.40;8.35;;;8.40;99.90;;;;;;5064180;28;20051;-73
2023/10/19 04:25:12;;;;;;;12.23;8.80;;;8.40;99.90;;;;;;5043956;28;20060;-73
2023/10/19 04:27:45;;;;;;;10.55;7.93;;;8.40;99.90;;;;;;5041094;28;20824;-73
2023/10/19 04:30:16;;;;;;;12.27;8.52;;;8.40;99.90;;;;;;5028686;28;20499;-73
2023/10/19 04:32:43;;;;;;;13.27;7.95;;;8.40;99.90;;;;;;5051697;28;20119;-73
2023/10/19 04:35:09;;;;;;;11.75;8.35;;;8.40;99.90;;;;;;5023823;28;20175;-73
2023/10/19 04:37:35;;;;;;;13.40;7.68;;;8.50;99.90;;;;;;5045930;28;20132;-73
2023/10/19 04:40:01;;;;;;;12.18;7.70;;;8.40;99.90;;;;;;5021940;28;20052;-73
2023/10/19 04:42:27;;;;;;;11.88;7.53;;;8.40;99.90;;;;;;5028110;28;20037;-73
2023/10/19 04:44:55;;;;;;;12.90;7.45;;;8.40;99.90;;;;;;5020834;28;20422;-73
2023/10/19 04:47:22;;;;;;;12.25;7.35;;;8.50;99.90;;;;;;5044015;28;20052;-73
2023/10/19 04:49:47;;;;;;;11.10;6.82;;;8.50;99.90;;;;;;5022978;28;20040;-73
2023/10/19 04:52:13;;;;;;;10.57;6.80;;;8.50;99.90;;;;;;5046107;28;20423;-73
2023/10/19 04:54:39;;;;;;;8.63;6.40;;;8.50;99.90;;;;;;5029223;28;20432;-73
2023/10/19 04:57:04;;;;;;;8.48;5.70;;;8.50;99.90;;;;;;5023758;28;20053;-72
2023/10/19 04:59:33;;;;;;;9.38;6.28;;;8.50;99.90;;;;;;5026545;28;20045;-72
2023/10/19 05:02:00;;;;;;;8.75;6.13;;;8.60;99.90;;;;;;5046603;28;20073;-72
2023/10/19 05:04:27;;;;;;;10.10;7.10;;;8.60;99.90;;;;;;5018029;28;20114;-72
2023/10/19 05:06:53;;;;;;;9.23;6.07;;;8.60;99.90;;;;;;5035002;28;20045;-73
2023/10/19 05:09:19;;;;;;;8.65;5.80;;;8.60;99.90;;;;;;5054214;28;20037;-73
2023/10/19 05:11:45;;;;;;;8.52;5.90;;;8.60;99.90;;;;;;5040722;28;20045;-73
2023/10/19 05:14:14;;;;;;;11.07;7.00;;;8.60;99.90;;;;;;5028443;28;20488;-73
2023/10/19 05:16:40;;;;;;;9.18;6.32;;;8.60;99.90;;;;;;5024634;28;20042;-73
2023/10/19 05:19:06;;;;;;;10.35;6.35;;;8.60;99.90;;;;;;5027861;28;20407;-73
2023/10/19 05:21:33;;;;;;;10.73;6.95;;;8.60;99.90;;;;;;5023963;28;20036;-73
2023/10/19 05:24:02;;;;;;;10.38;6.43;;;8.60;99.90;;;;;;5028133;28;20123;-73
2023/10/19 05:26:28;;;;;;;9.60;6.45;;;8.60;99.90;;;;;;5027483;28;20041;-73
2023/10/19 05:28:54;;;;;;;9.15;6.57;;;8.70;99.90;;;;;;5020776;28;20064;-73
2023/10/19 05:31:20;;;;;;;9.13;6.07;;;8.60;99.90;;;;;;5023544;28;20151;-74
2023/10/19 05:33:48;;;;;;;9.63;6.15;;;8.70;99.90;;;;;;5044557;28;20530;-73
2023/10/19 05:36:14;;;;;;;11.15;6.80;;;8.60;99.90;;;;;;5028136;28;20132;-73
2023/10/19 05:38:40;;;;;;;10.65;6.50;;;8.60;99.90;;;;;;5030453;28;20047;-73
2023/10/19 05:41:07;;;;;;;9.55;6.07;;;8.60;99.90;;;;;;5027859;28;20037;-73
2023/10/19 05:43:34;;;;;;;8.30;5.88;;;8.70;99.90;;;;;;5022009;28;20041;-73
2023/10/19 05:46:00;;;;;;;6.88;5.32;;;8.80;99.90;;;;;;5042752;28;20049;-73
2023/10/19 05:48:26;;;;;;;9.55;6.10;;;8.70;99.90;;;;;;5029336;28;20175;-73
2023/10/19 05:50:51;;;;;;;8.27;5.25;;;8.70;99.90;;;;;;5031807;28;20045;-75
2023/10/19 05:53:22;;;;;;;7.05;5.28;;;8.70;99.90;;;;;;5022883;28;20482;-73
2023/10/19 05:55:49;;;;;;;7.90;4.75;;;8.80;99.90;;;;;;5045094;28;20099;-73
2023/10/19 05:58:15;;;;;;;6.65;4.93;;;8.80;99.90;;;;;;5038150;28;20061;-73
2023/10/19 06:00:42;;;;;;;8.50;5.20;;;8.70;99.90;;;;;;5053725;28;20038;-73
2023/10/19 06:03:08;;;;;;;8.52;5.57;;;8.80;99.90;;;;;;5050698;28;20049;-73
2023/10/19 06:05:33;;;;;;;7.60;5.10;;;8.80;99.90;;;;;;5048565;28;20037;-73
2023/10/19 06:07:59;;;;;;;7.07;4.88;;;8.70;99.90;;;;;;5041655;28;20060;-73
2023/10/19 06:10:27;;;;;;;7.50;5.15;;;8.70;99.90;;;;;;5036640;28;20099;-73
2023/10/19 06:12:53;;;;;;;7.70;5.28;;;8.80;99.90;;;;;;5024686;28;20033;-73
2023/10/19 06:15:23;;;;;;;9.07;4.85;;;8.70;99.90;;;;;;5026128;28;20037;-73
2023/10/19 06:17:49;;;;;;;6.80;4.80;;;8.80;99.90;;;;;;5039825;28;20515;-73
2023/10/19 06:20:25;;;;;;;6.97;4.82;;;8.80;99.90;;;;;;5049110;28;20076;-73
2023/10/19 06:22:52;;;;;;;;;;;8.70;99.90;;;;;;5042645;28;20060;-73
2023/10/19 06:25:22;;;;;;;6.47;4.50;;;8.70;99.90;;;;;;5039251;28;19924;-74
2023/10/19 06:27:48;;;;;;;7.82;4.70;;;8.70;99.90;;;;;;5039326;28;20606;-73
2023/10/19 06:30:18;;;;;;;6.65;4.70;;;8.80;99.90;;;;;;5032242;28;20168;-73
2023/10/19 06:32:52;;;;;;;6.72;4.85;;;8.80;99.90;;;;;;5036373;28;20079;-73
2023/10/19 06:35:19;;;;;;;7.13;4.93;;;8.90;99.90;;;;;;5037795;28;20060;-73
2023/10/19 06:37:45;;;;;;;8.68;4.95;;;8.80;99.90;;;;;;5038137;28;20578;-72
2023/10/19 06:40:14;;;;;;;6.63;4.65;;;8.90;99.90;;;;;;5025177;28;20779;-72
2023/10/19 06:42:41;;;;;;;7.22;4.75;;;8.90;99.90;;;;;;5036865;28;20083;-76
2023/10/19 06:45:07;;;;;;;5.88;4.32;;;8.90;99.90;;;;;;5035390;28;20103;-76
2023/10/19 06:47:37;;;;;;;7.32;5.00;;;8.90;99.90;;;;;;5037707;28;20053;-77
2023/10/19 06:50:07;;;;;;;7.20;5.10;;;9.00;99.90;;;;;;5040858;28;20447;-77
2023/10/19 06:52:33;;;;;;;6.75;4.68;;;8.90;99.90;;;;;;5043701;28;20057;-76
2023/10/19 06:54:58;;;;;;;5.55;4.30;;;8.90;99.90;;;;;;5046774;28;20395;-76
2023/10/19 06:57:24;;;;;;;6.55;4.60;;;8.90;99.90;;;;;;5026547;28;20033;-76
2023/10/19 06:59:52;;;;;;;5.18;4.00;;;9.00;99.90;;;;;;5036403;28;20119;-77
2023/10/19 07:02:20;;;;;;;5.18;4.10;;;9.00;99.90;;;;;;5028320;28;20128;-76
2023/10/19 07:04:47;;;;;;;5.57;4.20;;;8.90;99.90;;;;;;5035625;28;20029;-77
2023/10/19 07:07:13;;;;;;;7.45;4.40;;;9.00;99.90;;;;;;5038381;28;20041;-76
2023/10/19 07:09:39;;;;;;;4.47;3.80;;;9.10;99.90;;;;;;5040413;28;20052;-77
2023/10/19 07:12:07;;;;;;;4.68;3.42;;;9.00;99.90;;;;;;5044976;28;20029;-76
2023/10/19 07:14:33;;;;;;;5.15;3.83;;;9.00;99.90;;;;;;5035224;28;20116;-76
2023/10/19 07:16:59;;;;;;;5.68;4.03;;;9.00;99.90;;;;;;5045984;28;20037;-76
2023/10/19 07:19:25;;;;;;;6.63;4.63;;;9.10;99.90;;;;;;5044529;28;20063;-76
2023/10/19 07:21:57;;;;;;;4.70;3.17;;;9.10;99.90;;;;;;5040322;28;20033;-76
2023/10/19 07:24:23;;;;;;;5.13;3.42;;;9.20;99.90;;;;;;5059945;28;20048;-76
2023/10/19 07:26:53;;;;;;;4.63;3.35;;;9.10;99.90;;;;;;5041446;28;20174;-76
2023/10/19 07:29:22;;;;;;;6.63;3.80;;;9.10;99.90;;;;;;5059119;28;20037;-76
2023/10/19 07:31:48;;;;;;;4.72;3.55;;;9.20;99.90;;;;;;5029270;28;20526;-75
2023/10/19 07:34:15;;;;;;;4.70;3.83;;;9.20;99.90;;;;;;5041240;28;20041;-76
2023/10/19 07:36:44;;;;;;;4.53;3.75;;;9.20;99.90;;;;;;5026369;28;20040;-75
2023/10/19 07:39:18;;;;;;;4.07;3.15;;;9.20;99.90;;;;;;5033894;28;20056;-75
2023/10/19 07:41:44;;;;;;;4.72;3.60;;;9.20;99.90;;;;;;5033628;28;20384;-76
2023/10/19 07:44:11;;;;;;;5.82;4.28;;;9.20;99.90;;;;;;5031950;28;20040;-75
2023/10/19 07:46:37;;;;;;;4.70;3.72;;;9.30;99.90;;;;;;5032109;28;20047;-75
2023/10/19 07:49:03;;;;;;;5.75;3.83;;;9.30;99.90;;;;;;5031777;28;20036;-76
2023/10/19 07:51:29;;;;;;;5.28;4.03;;;9.20;99.90;;;;;;5048352;28;20040;-76
2023/10/19 07:53:56;;;;;;;5.80;4.00;;;9.30;99.90;;;;;;5031739;28;20103;-77
2023/10/19 07:56:23;;;;;;;5.55;4.10;;;9.40;99.90;;;;;;5033153;28;20037;-76
2023/10/19 07:58:49;;;;;;;5.65;4.13;;;9.40;99.90;;;;;;5053286;28;20060;-77
2023/10/19 08:01:15;;;;;;;5.65;4.00;;;9.40;99.90;;;;;;5047430;28;20124;-76
2023/10/19 08:03:41;;;;;;;5.03;3.88;;;9.40;99.90;;;;;;5045027;28;20147;-76
2023/10/19 08:06:07;;;;;;;5.70;4.60;;;9.40;99.90;;;;;;5025087;28;20614;-77
2023/10/19 08:08:35;;;;;;;6.15;4.18;;;9.40;99.90;;;;;;5025200;28;20067;-77
2023/10/19 08:11:01;;;;;;;6.38;4.18;;;9.40;99.90;;;;;;5030572;28;20568;-76
2023/10/19 08:13:27;;;;;;;5.85;4.55;;;9.40;99.90;;;;;;5047107;28;20045;-76
2023/10/19 08:15:53;;;;;;;6.82;4.70;;;9.40;99.90;;;;;;5045821;28;20075;-77
2023/10/19 08:18:18;;;;;;;6.60;4.43;;;9.50;99.90;;;;;;5032188;28;20069;-77
2023/10/19 08:20:49;;;;;;;8.27;5.40;;;9.50;99.90;;;;;;5043508;28;20037;-77
2023/10/19 08:23:16;;;;;;;7.82;4.80;;;9.50;99.90;;;;;;5046793;28;20036;-77
2023/10/19 08:25:44;;;;;;;7.78;4.95;;;9.50;99.90;;;;;;5031386;28;20045;-76
2023/10/19 08:28:10;;;;;;;9.20;5.10;;;9.60;99.90;;;;;;5043989;28;21657;-76
2023/10/19 08:30:37;;;;;;;6.47;5.05;;;9.60;99.90;;;;;;5040150;28;20045;-77
2023/10/19 08:33:03;;;;;;;8.77;5.05;;;9.60;99.90;;;;;;5031783;28;20052;-77
2023/10/19 08:35:30;;;;;;;8.38;5.38;;;9.60;99.90;;;;;;5029708;28;20051;-77
2023/10/19 08:37:59;;;;;;;9.10;5.78;;;9.60;99.90;;;;;;5038941;28;20048;-77
2023/10/19 08:40:26;;;;;;;11.32;6.03;;;9.60;99.90;;;;;;5029119;28;20126;-77
2023/10/19 08:42:53;;;;;;;10.65;5.85;;;9.70;99.90;;;;;;5021001;28;20060;-77
2023/10/19 08:45:21;;;;;;;16.95;9.93;;;9.60;99.90;;;;;;5047618;28;20122;-76
2023/10/19 08:47:59;;;;;;;17.55;6.47;;;9.70;99.90;;;;;;5022507;28;20040;-77
2023/10/19 08:50:26;;;;;;;12.75;7.10;;;9.70;99.90;;;;;;5045940;28;20120;-77
2023/10/19 08:52:54;;;;;;;9.00;6.10;;;9.70;99.90;;;;;;5032397;28;20049;-77
2023/10/19 08:55:20;;;;;;;13.77;6.63;;;9.70;99.90;;;;;;5045914;28;20048;-77
2023/10/19 08:57:50;;;;;;;9.73;5.55;;;9.80;99.90;;;;;;5020257;28;20036;-77
2023/10/19 09:00:18;;;;;;;13.63;8.20;;;9.80;99.90;;;;;;5039063;28;20045;-77
2023/10/19 09:02:47;;;;;;;10.70;5.80;;;9.90;99.90;;;;;;5036331;28;20526;-77
2023/10/19 09:05:22;;;;;;;11.75;6.53;;;9.90;99.90;;;;;;5044120;28;20048;-77
2023/10/19 09:07:54;;;;;;;13.70;8.55;;;9.90;99.90;;;;;;5036617;28;20495;-77
2023/10/19 09:10:31;;;;;;;13.07;8.15;;;9.90;99.90;;;;;;5035565;28;20427;-77
2023/10/19 09:13:18;;;;;;;14.82;9.25;;;9.90;99.90;;;;;;5044145;28;20048;-77
2023/10/19 09:15:44;;;;;;;11.15;6.57;;;9.80;99.90;;;;;;5027523;28;20120;-77
2023/10/19 09:18:20;;;;;;;11.45;6.38;;;9.90;99.90;;;;;;5059346;28;20115;-77
2023/10/19 09:20:56;;;;;;;10.27;6.22;;;9.90;99.90;;;;;;5023463;28;20036;-78
2023/10/19 09:23:23;;;;;;;9.77;6.77;;;9.90;99.90;;;;;;5043486;28;20121;-77
2023/10/19 09:25:52;;;;;;;12.15;6.57;;;10.00;99.90;;;;;;5043322;28;20345;-77
2023/10/19 09:28:18;;;;;;;10.68;6.65;;;10.00;99.90;;;;;;5058120;28;20677;-77
2023/10/19 09:30:45;;;;;;;9.00;6.45;;;10.10;99.90;;;;;;5046539;28;20116;-77
2023/10/19 09:33:13;;;;;;;12.63;6.65;;;10.00;99.90;;;;;;5042513;28;20075;-77
2023/10/19 09:35:43;;;;;;;9.70;6.97;;;9.90;99.90;;;;;;5031183;28;20037;-77
2023/10/19 09:38:09;;;;;;;11.57;7.30;;;10.00;99.90;;;;;;5043612;28;20135;-77
2023/10/19 09:40:35;;;;;;;10.02;6.38;;;10.00;99.90;;;;;;5023978;28;20048;-77
2023/10/19 09:43:08;;;;;;;10.63;7.55;;;10.00;99.90;;;;;;5023707;28;20046;-77
2023/10/19 09:45:37;;;;;;;11.90;7.03;;;10.00;99.90;;;;;;5040057;28;20128;-77
2023/10/19 09:48:07;;;;;;;10.82;6.53;;;10.10;99.90;;;;;;5027427;28;20037;-77
2023/10/19 09:50:33;;;;;;;12.50;8.00;;;10.10;99.90;;;;;;5045118;28;20037;-77
2023/10/19 09:52:59;;;;;;;12.27;7.55;;;10.00;99.90;;;;;;5047018;28;20080;-77
2023/10/19 09:55:32;;;;;;;12.43;7.32;;;10.10;99.90;;;;;;5046728;28;23133;-77
2023/10/19 09:58:15;;;;;;;16.80;7.18;;;10.20;99.90;;;;;;5045635;28;20032;-77
2023/10/19 10:00:45;;;;;;;15.63;8.35;;;10.30;99.90;;;;;;5044976;28;20037;-77
2023/10/19 10:03:45;;;;;;;13.85;7.70;;;10.40;99.90;;;;;;5051768;28;20053;-77
2023/10/19 10:06:12;;;;;;;15.27;7.93;;;10.40;99.90;;;;;;5029054;28;20123;-77
2023/10/19 10:08:39;;;;;;;13.00;8.18;;;10.50;99.90;;;;;;5039353;28;20416;-77
2023/10/19 10:11:21;;;;;;;12.93;8.48;;;10.60;99.90;;;;;;5030711;28;20398;-77
2023/10/19 10:13:50;;;;;;;12.63;8.30;;;10.60;99.90;;;;;;5038389;28;20044;-77
2023/10/19 10:16:18;;;;;;;13.57;9.82;;;10.60;99.90;;;;;;5026915;28;20033;-77
2023/10/19 10:18:48;;;;;;;12.35;7.93;;;10.70;99.90;;;;;;5046070;28;20047;-76
2023/10/19 10:21:15;;;;;;;14.13;8.07;;;10.70;99.90;;;;;;5028196;28;20812;-77
2023/10/19 10:23:47;;;;;;;12.35;7.68;;;10.80;99.90;;;;;;5031433;28;20037;-76
2023/10/19 10:26:14;;;;;;;18.27;12.20;;;10.80;99.90;;;;;;5028874;28;20071;-76
2023/10/19 10:28:47;;;;;;;16.95;11.07;;;10.90;99.90;;;;;;5027436;28;20070;-77
2023/10/19 10:31:22;;;;;;;12.90;8.48;;;11.00;99.90;;;;;;5026155;28;20091;-76
2023/10/19 10:33:54;;;;;;;13.88;9.25;;;11.00;99.90;;;;;;5038284;28;20087;-76
2023/10/19 10:36:20;;;;;;;19.95;11.93;;;10.90;99.90;;;;;;5046417;28;20045;-76
2023/10/19 10:38:52;;;;;;;14.82;9.00;;;10.80;99.90;;;;;;5040943;28;20649;-76
2023/10/19 10:41:24;;;;;;;13.35;9.00;;;10.90;99.90;;;;;;5024868;28;20045;-76
2023/10/19 10:43:54;;;;;;;15.95;9.90;;;10.90;99.90;;;;;;5055364;28;20049;-75
2023/10/19 10:46:27;;;;;;;13.00;8.35;;;11.00;99.90;;;;;;5038895;28;20483;-75
2023/10/19 10:48:53;;;;;;;17.05;10.02;;;11.00;99.90;;;;;;5027054;28;20041;-75
2023/10/19 10:51:22;;;;;;;12.63;8.75;;;11.10;99.90;;;;;;5032349;28;20041;-76
2023/10/19 10:53:49;;;;;;;22.50;12.35;;;11.10;99.90;;;;;;5021780;28;20471;-75
2023/10/19 10:56:17;;;;;;;21.80;12.45;;;11.20;99.90;;;;;;5048083;28;20040;-75
2023/10/19 10:58:43;;;;;;;13.85;8.68;;;11.20;99.90;;;;;;5036880;28;20255;-75
2023/10/19 11:01:10;;;;;;;18.50;9.27;;;11.30;99.90;;;;;;5038088;28;20040;-77
2023/10/19 11:03:39;;;;;;;15.93;9.15;;;11.30;99.90;;;;;;5020937;28;20095;-75
2023/10/19 11:06:08;;;;;;;16.17;9.23;;;11.30;99.90;;;;;;5028220;28;20041;-75
2023/10/19 11:08:35;;;;;;;18.80;9.15;;;11.30;99.90;;;;;;5057331;28;20403;-75
2023/10/19 11:11:11;;;;;;;13.77;9.02;;;11.30;99.90;;;;;;5057863;28;20037;-75
2023/10/19 11:13:38;;;;;;;15.70;9.32;;;11.20;99.90;;;;;;5027424;28;20033;-75
2023/10/19 11:16:05;;;;;;;14.55;8.35;;;11.20;99.90;;;;;;5048000;28;20037;-75
2023/10/19 11:18:39;;;;;;;14.43;9.57;;;11.20;99.90;;;;;;5045050;28;20033;-76
2023/10/19 11:21:10;;;;;;;14.85;8.82;;;11.20;99.90;;;;;;5027926;28;20040;-77
2023/10/19 11:23:42;;;;;;;17.02;9.88;;;11.20;99.90;;;;;;5047928;28;20407;-76
2023/10/19 11:26:10;;;;;;;13.63;9.35;;;11.20;99.90;;;;;;5037108;28;20045;-76
2023/10/19 11:28:44;;;;;;;16.80;10.40;;;11.20;99.90;;;;;;5030662;28;20041;-76
2023/10/19 11:31:19;;;;;;;16.33;9.20;;;11.20;99.90;;;;;;5047071;28;20045;-76
2023/10/19 11:33:48;;;;;;;16.27;8.85;;;11.20;99.90;;;;;;5028558;28;20783;-76
2023/10/19 11:36:15;;;;;;;16.55;10.00;;;11.10;99.90;;;;;;5040823;28;20642;-76
2023/10/19 11:38:48;;;;;;;18.08;9.05;;;11.10;99.90;;;;;;5033770;28;20033;-75
2023/10/19 11:41:15;;;;;;;15.73;9.75;;;11.20;99.90;;;;;;5041175;28;20046;-76
2023/10/19 11:43:43;;;;;;;14.95;9.70;;;11.20;99.90;;;;;;5035713;28;20040;-77
2023/10/19 11:46:14;;;;;;;16.27;9.10;;;11.30;99.90;;;;;;5023831;28;20049;-76
2023/10/19 11:48:42;;;;;;;14.75;9.70;;;11.40;99.90;;;;;;5031720;28;20477;-77
2023/10/19 11:51:10;;;;;;;16.45;9.38;;;11.40;99.90;;;;;;5023644;28;20071;-77
2023/10/19 11:53:38;;;;;;;16.15;9.27;;;11.50;99.90;;;;;;5027553;28;20435;-76
2023/10/19 11:56:06;;;;;;;14.65;9.30;;;11.60;99.90;;;;;;5045575;28;20044;-77
2023/10/19 11:58:34;;;;;;;15.13;9.50;;;11.70;99.90;;;;;;5031770;28;20526;-75
2023/10/19 12:01:08;;;;;;;15.18;10.00;;;11.80;99.90;;;;;;5022674;28;20060;-76
2023/10/19 12:03:36;;;;;;;17.83;10.02;;;12.00;99.90;;;;;;5016484;28;20060;-76
2023/10/19 12:06:06;;;;;;;14.65;10.50;;;12.10;99.90;;;;;;5047545;28;20037;-76
2023/10/19 12:08:33;;;;;;;15.77;8.82;;;12.10;99.90;;;;;;5048552;28;20091;-76
2023/10/19 12:11:01;;;;;;;14.02;9.32;;;12.10;99.90;;;;;;5039855;28;20112;-76
2023/10/19 12:13:28;;;;;;;12.18;8.38;;;12.00;99.90;;;;;;5043762;28;20081;-76
2023/10/19 12:15:55;;;;;;;14.75;8.52;;;12.00;99.90;;;;;;5030808;28;20029;-77
2023/10/19 12:18:28;;;;;;;12.45;8.45;;;12.00;99.90;;;;;;5032189;28;20069;-76
2023/10/19 12:20:59;;;;;;;10.43;7.97;;;11.90;99.90;;;;;;5037254;28;20033;-77
2023/10/19 12:23:26;;;;;;;11.80;8.25;;;11.80;99.90;;;;;;5028732;28;20043;-77
2023/10/19 12:25:52;;;;;;;14.93;7.93;;;11.80;99.90;;;;;;5044874;28;20048;-76
2023/10/19 12:28:19;;;;;;;14.85;8.55;;;11.70;99.90;;;;;;5030198;28;20491;-77
2023/10/19 12:30:45;;;;;;;12.73;8.35;;;11.70;99.90;;;;;;5039116;28;20523;-76
2023/10/19 12:33:13;;;;;;;11.95;8.35;;;11.70;99.90;;;;;;5042426;28;20048;-75
2023/10/19 12:35:53;;;;;;;17.48;10.85;;;11.70;99.90;;;;;;5039750;28;20048;-76
2023/10/19 12:38:22;;;;;;;19.05;11.02;;;11.70;99.90;;;;;;5039624;28;20053;-76
2023/10/19 12:40:50;;;;;;;11.73;7.97;;;11.70;99.90;;;;;;5032645;28;20037;-76
2023/10/19 12:43:18;;;;;;;12.13;8.23;;;11.60;99.90;;;;;;5028851;28;20041;-76
2023/10/19 12:45:50;;;;;;;10.35;8.10;;;11.60;99.90;;;;;;5037059;28;20050;-76
2023/10/19 12:48:17;;;;;;;12.50;7.70;;;11.60;99.90;;;;;;5022886;28;20037;-76
2023/10/19 12:50:43;;;;;;;13.35;7.97;;;11.60;99.90;;;;;;5024719;28;20045;-76
2023/10/19 12:53:09;;;;;;;9.82;7.40;;;11.50;99.90;;;;;;5041167;28;20049;-76
2023/10/19 12:55:37;;;;;;;11.60;7.40;;;11.50;99.90;;;;;;5042805;28;20514;-76
2023/10/19 12:58:09;;;;;;;13.82;6.95;;;11.40;99.90;;;;;;5059710;28;20510;-76
2023/10/19 13:00:36;;;;;;;9.77;7.53;;;11.40;99.90;;;;;;5020411;28;20476;-76
2023/10/19 13:03:05;;;;;;;11.63;7.70;;;11.30;99.90;;;;;;5028259;28;20681;-76
2023/10/19 13:05:35;;;;;;;10.48;7.72;;;11.40;99.90;;;;;;5034753;28;20048;-76
2023/10/19 13:08:02;;;;;;;12.70;7.32;;;11.30;99.90;;;;;;5029652;28;20048;-75
2023/10/19 13:10:32;;;;;;;10.55;7.72;;;11.30;99.90;;;;;;5022637;28;20183;-75
2023/10/19 13:13:04;;;;;;;10.15;7.43;;;11.30;99.90;;;;;;5048354;28;20072;-75
2023/10/19 13:15:32;;;;;;;12.23;8.35;;;11.30;99.90;;;;;;5027993;28;20045;-75
2023/10/19 13:18:00;;;;;;;14.65;8.38;;;11.30;99.90;;;;;;5043368;28;20125;-76
2023/10/19 13:20:33;;;;;;;13.93;9.13;;;11.30;99.90;;;;;;5041189;28;20037;-76